sensor_id;sensor_type;location;lat;lon;timestamp;P1;durP1;ratioP1;P2;durP2;ratioP2
39264;SDS011;42646;51.910;7.724;2024-03-07T00:02:00;35.53;;;20.50;;
39264;SDS011;42646;51.910;7.724;2024-03-07T00:04:29;39.72;;;22.23;;
39264;SDS011;42646;51.910;7.724;2024-03-07T00:06:56;37.83;;;22.33;;
39264;SDS011;42646;51.910;7.724;2024-03-07T00:09:24;38.53;;;21.88;;
39264;SDS011;42646;51.910;7.724;2024-03-07T00:11:52;37.33;;;22.60;;
39264;SDS011;42646;51.910;7.724;2024-03-07T00:14:20;38.40;;;22.60;;
39264;SDS011;42646;51.910;7.724;2024-03-07T00:16:50;33.85;;;21.13;;
39264;SDS011;42646;51.910;7.724;2024-03-07T00:19:17;39.85;;;23.17;;
39264;SDS011;42646;51.910;7.724;2024-03-07T00:21:45;41.13;;;23.33;;
39264;SDS011;42646;51.910;7.724;2024-03-07T00:24:13;38.30;;;22.73;;
39264;SDS011;42646;51.910;7.724;2024-03-07T00:26:42;38.70;;;23.80;;
39264;SDS011;42646;51.910;7.724;2024-03-07T00:29:10;41.58;;;24.50;;
39264;SDS011;42646;51.910;7.724;2024-03-07T00:31:37;37.50;;;22.73;;
39264;SDS011;42646;51.910;7.724;2024-03-07T00:34:06;39.00;;;23.30;;
39264;SDS011;42646;51.910;7.724;2024-03-07T00:36:44;38.78;;;23.35;;
39264;SDS011;42646;51.910;7.724;2024-03-07T00:39:12;38.20;;;23.20;;
39264;SDS011;42646;51.910;7.724;2024-03-07T00:41:40;36.15;;;22.30;;
39264;SDS011;42646;51.910;7.724;2024-03-07T00:44:08;36.60;;;23.50;;
39264;SDS011;42646;51.910;7.724;2024-03-07T00:46:36;38.65;;;22.65;;
39264;SDS011;42646;51.910;7.724;2024-03-07T00:49:04;40.30;;;23.50;;
39264;SDS011;42646;51.910;7.724;2024-03-07T00:51:33;37.95;;;22.15;;
39264;SDS011;42646;51.910;7.724;2024-03-07T00:54:03;39.85;;;23.02;;
39264;SDS011;42646;51.910;7.724;2024-03-07T00:56:32;35.80;;;22.50;;
39264;SDS011;42646;51.910;7.724;2024-03-07T00:59:00;36.55;;;23.75;;
39264;SDS011;42646;51.910;7.724;2024-03-07T01:01:27;40.38;;;22.80;;
39264;SDS011;42646;51.910;7.724;2024-03-07T01:03:55;37.47;;;21.85;;
39264;SDS011;42646;51.910;7.724;2024-03-07T01:06:23;42.83;;;22.45;;
39264;SDS011;42646;51.910;7.724;2024-03-07T01:08:52;38.67;;;21.88;;
39264;SDS011;42646;51.910;7.724;2024-03-07T01:11:19;33.47;;;21.77;;
39264;SDS011;42646;51.910;7.724;2024-03-07T01:13:47;37.03;;;22.88;;
39264;SDS011;42646;51.910;7.724;2024-03-07T01:16:14;37.45;;;21.30;;
39264;SDS011;42646;51.910;7.724;2024-03-07T01:18:42;35.08;;;21.40;;
39264;SDS011;42646;51.910;7.724;2024-03-07T01:21:10;34.28;;;20.83;;
39264;SDS011;42646;51.910;7.724;2024-03-07T01:23:39;36.63;;;21.55;;
39264;SDS011;42646;51.910;7.724;2024-03-07T01:26:08;33.85;;;20.45;;
39264;SDS011;42646;51.910;7.724;2024-03-07T01:28:36;32.47;;;19.55;;
39264;SDS011;42646;51.910;7.724;2024-03-07T01:31:03;32.80;;;19.02;;
39264;SDS011;42646;51.910;7.724;2024-03-07T01:33:31;30.30;;;18.80;;
39264;SDS011;42646;51.910;7.724;2024-03-07T01:35:59;32.03;;;18.27;;
39264;SDS011;42646;51.910;7.724;2024-03-07T01:38:26;30.17;;;18.42;;
39264;SDS011;42646;51.910;7.724;2024-03-07T01:40:54;32.25;;;20.38;;
39264;SDS011;42646;51.910;7.724;2024-03-07T01:43:23;31.13;;;18.73;;
39264;SDS011;42646;51.910;7.724;2024-03-07T01:45:51;29.13;;;18.02;;
39264;SDS011;42646;51.910;7.724;2024-03-07T01:50:53;30.33;;;17.13;;
39264;SDS011;42646;51.910;7.724;2024-03-07T01:53:22;30.23;;;18.80;;
39264;SDS011;42646;51.910;7.724;2024-03-07T01:55:50;29.05;;;17.50;;
39264;SDS011;42646;51.910;7.724;2024-03-07T01:58:20;28.35;;;17.48;;
39264;SDS011;42646;51.910;7.724;2024-03-07T02:00:49;28.80;;;18.05;;
39264;SDS011;42646;51.910;7.724;2024-03-07T02:03:17;29.05;;;18.52;;
39264;SDS011;42646;51.910;7.724;2024-03-07T02:05:45;31.45;;;17.95;;
39264;SDS011;42646;51.910;7.724;2024-03-07T02:08:13;29.00;;;18.35;;
39264;SDS011;42646;51.910;7.724;2024-03-07T02:10:41;29.73;;;18.40;;
39264;SDS011;42646;51.910;7.724;2024-03-07T02:13:08;26.90;;;16.95;;
39264;SDS011;42646;51.910;7.724;2024-03-07T02:15:36;28.77;;;17.90;;
39264;SDS011;42646;51.910;7.724;2024-03-07T02:18:06;31.13;;;17.17;;
39264;SDS011;42646;51.910;7.724;2024-03-07T02:20:35;29.38;;;17.35;;
39264;SDS011;42646;51.910;7.724;2024-03-07T02:23:04;29.17;;;17.15;;
39264;SDS011;42646;51.910;7.724;2024-03-07T02:25:32;27.90;;;17.58;;
39264;SDS011;42646;51.910;7.724;2024-03-07T02:28:03;28.13;;;17.30;;
39264;SDS011;42646;51.910;7.724;2024-03-07T02:30:31;28.25;;;17.63;;
39264;SDS011;42646;51.910;7.724;2024-03-07T02:32:59;27.48;;;16.70;;
39264;SDS011;42646;51.910;7.724;2024-03-07T02:35:33;25.48;;;16.73;;
39264;SDS011;42646;51.910;7.724;2024-03-07T02:38:02;30.58;;;17.33;;
39264;SDS011;42646;51.910;7.724;2024-03-07T02:40:31;26.92;;;16.98;;
39264;SDS011;42646;51.910;7.724;2024-03-07T02:42:59;27.25;;;16.45;;
39264;SDS011;42646;51.910;7.724;2024-03-07T02:45:27;28.02;;;17.00;;
39264;SDS011;42646;51.910;7.724;2024-03-07T02:47:56;26.45;;;16.92;;
39264;SDS011;42646;51.910;7.724;2024-03-07T02:50:24;24.85;;;15.43;;
39264;SDS011;42646;51.910;7.724;2024-03-07T02:52:51;25.98;;;16.65;;
39264;SDS011;42646;51.910;7.724;2024-03-07T02:55:19;26.35;;;15.10;;
39264;SDS011;42646;51.910;7.724;2024-03-07T02:57:48;25.52;;;15.43;;
39264;SDS011;42646;51.910;7.724;2024-03-07T03:00:17;26.50;;;15.90;;
39264;SDS011;42646;51.910;7.724;2024-03-07T03:02:52;24.80;;;15.13;;
39264;SDS011;42646;51.910;7.724;2024-03-07T03:05:21;25.75;;;16.33;;
39264;SDS011;42646;51.910;7.724;2024-03-07T03:07:50;24.77;;;15.10;;
39264;SDS011;42646;51.910;7.724;2024-03-07T03:10:21;24.17;;;15.18;;
39264;SDS011;42646;51.910;7.724;2024-03-07T03:12:53;24.30;;;15.20;;
39264;SDS011;42646;51.910;7.724;2024-03-07T03:15:24;25.77;;;15.30;;
39264;SDS011;42646;51.910;7.724;2024-03-07T03:17:51;25.30;;;15.30;;
39264;SDS011;42646;51.910;7.724;2024-03-07T03:20:19;24.30;;;15.15;;
39264;SDS011;42646;51.910;7.724;2024-03-07T03:23:00;25.48;;;15.20;;
39264;SDS011;42646;51.910;7.724;2024-03-07T03:25:45;25.13;;;15.65;;
39264;SDS011;42646;51.910;7.724;2024-03-07T03:28:16;24.95;;;15.75;;
39264;SDS011;42646;51.910;7.724;2024-03-07T03:30:45;24.85;;;15.02;;
39264;SDS011;42646;51.910;7.724;2024-03-07T03:33:13;25.45;;;15.27;;
39264;SDS011;42646;51.910;7.724;2024-03-07T03:35:42;25.50;;;16.05;;
39264;SDS011;42646;51.910;7.724;2024-03-07T03:38:10;24.23;;;15.57;;
39264;SDS011;42646;51.910;7.724;2024-03-07T03:40:38;24.30;;;15.30;;
39264;SDS011;42646;51.910;7.724;2024-03-07T03:43:06;24.83;;;14.75;;
39264;SDS011;42646;51.910;7.724;2024-03-07T03:45:35;24.90;;;15.50;;
39264;SDS011;42646;51.910;7.724;2024-03-07T03:48:04;26.58;;;14.98;;
39264;SDS011;42646;51.910;7.724;2024-03-07T03:50:32;21.77;;;14.45;;
39264;SDS011;42646;51.910;7.724;2024-03-07T03:53:00;25.38;;;15.30;;
39264;SDS011;42646;51.910;7.724;2024-03-07T03:55:30;23.20;;;14.73;;
39264;SDS011;42646;51.910;7.724;2024-03-07T03:57:58;23.45;;;14.50;;
39264;SDS011;42646;51.910;7.724;2024-03-07T04:00:26;25.38;;;14.82;;
39264;SDS011;42646;51.910;7.724;2024-03-07T04:02:55;24.50;;;15.45;;
39264;SDS011;42646;51.910;7.724;2024-03-07T04:05:23;22.75;;;13.75;;
39264;SDS011;42646;51.910;7.724;2024-03-07T04:07:51;25.55;;;14.25;;
39264;SDS011;42646;51.910;7.724;2024-03-07T04:10:19;22.02;;;14.40;;
39264;SDS011;42646;51.910;7.724;2024-03-07T04:12:47;21.90;;;14.75;;
39264;SDS011;42646;51.910;7.724;2024-03-07T04:15:15;23.15;;;14.40;;
39264;SDS011;42646;51.910;7.724;2024-03-07T04:17:45;23.85;;;14.95;;
39264;SDS011;42646;51.910;7.724;2024-03-07T04:20:16;23.88;;;15.30;;
39264;SDS011;42646;51.910;7.724;2024-03-07T04:22:46;23.00;;;14.47;;
39264;SDS011;42646;51.910;7.724;2024-03-07T04:25:13;26.63;;;15.38;;
39264;SDS011;42646;51.910;7.724;2024-03-07T04:27:41;24.42;;;14.88;;
39264;SDS011;42646;51.910;7.724;2024-03-07T04:30:09;25.98;;;14.88;;
39264;SDS011;42646;51.910;7.724;2024-03-07T04:32:37;23.75;;;15.65;;
39264;SDS011;42646;51.910;7.724;2024-03-07T04:35:08;24.47;;;14.97;;
39264;SDS011;42646;51.910;7.724;2024-03-07T04:37:40;24.77;;;15.65;;
39264;SDS011;42646;51.910;7.724;2024-03-07T04:40:08;24.80;;;14.90;;
39264;SDS011;42646;51.910;7.724;2024-03-07T04:42:44;25.27;;;14.90;;
39264;SDS011;42646;51.910;7.724;2024-03-07T04:45:13;24.95;;;14.98;;
39264;SDS011;42646;51.910;7.724;2024-03-07T04:47:41;24.15;;;15.43;;
39264;SDS011;42646;51.910;7.724;2024-03-07T04:50:10;24.48;;;15.68;;
39264;SDS011;42646;51.910;7.724;2024-03-07T04:52:40;23.83;;;14.93;;
39264;SDS011;42646;51.910;7.724;2024-03-07T04:55:09;23.88;;;14.63;;
39264;SDS011;42646;51.910;7.724;2024-03-07T04:57:37;22.95;;;14.93;;
39264;SDS011;42646;51.910;7.724;2024-03-07T05:00:07;24.75;;;15.27;;
39264;SDS011;42646;51.910;7.724;2024-03-07T05:02:39;25.38;;;15.60;;
39264;SDS011;42646;51.910;7.724;2024-03-07T05:05:07;27.55;;;16.42;;
39264;SDS011;42646;51.910;7.724;2024-03-07T05:07:35;26.50;;;15.68;;
39264;SDS011;42646;51.910;7.724;2024-03-07T05:10:05;25.70;;;16.20;;
39264;SDS011;42646;51.910;7.724;2024-03-07T05:12:34;27.48;;;17.08;;
39264;SDS011;42646;51.910;7.724;2024-03-07T05:15:03;28.52;;;16.58;;
39264;SDS011;42646;51.910;7.724;2024-03-07T05:17:32;26.45;;;15.95;;
39264;SDS011;42646;51.910;7.724;2024-03-07T05:20:01;24.65;;;16.02;;
39264;SDS011;42646;51.910;7.724;2024-03-07T05:22:36;25.25;;;16.23;;
39264;SDS011;42646;51.910;7.724;2024-03-07T05:25:08;25.70;;;15.90;;
39264;SDS011;42646;51.910;7.724;2024-03-07T05:27:35;25.23;;;15.27;;
39264;SDS011;42646;51.910;7.724;2024-03-07T05:30:05;26.90;;;15.80;;
39264;SDS011;42646;51.910;7.724;2024-03-07T05:32:37;25.40;;;16.02;;
39264;SDS011;42646;51.910;7.724;2024-03-07T05:35:06;23.90;;;14.88;;
39264;SDS011;42646;51.910;7.724;2024-03-07T05:37:34;27.45;;;16.20;;
39264;SDS011;42646;51.910;7.724;2024-03-07T05:40:02;25.20;;;16.08;;
39264;SDS011;42646;51.910;7.724;2024-03-07T05:42:31;29.67;;;16.38;;
39264;SDS011;42646;51.910;7.724;2024-03-07T05:44:59;25.02;;;15.00;;
39264;SDS011;42646;51.910;7.724;2024-03-07T05:47:27;24.63;;;15.45;;
39264;SDS011;42646;51.910;7.724;2024-03-07T05:49:55;26.25;;;16.13;;
39264;SDS011;42646;51.910;7.724;2024-03-07T05:52:22;26.83;;;16.40;;
39264;SDS011;42646;51.910;7.724;2024-03-07T05:54:50;26.10;;;15.70;;
39264;SDS011;42646;51.910;7.724;2024-03-07T05:57:18;27.23;;;15.98;;
39264;SDS011;42646;51.910;7.724;2024-03-07T05:59:47;27.10;;;16.33;;
39264;SDS011;42646;51.910;7.724;2024-03-07T06:02:14;26.90;;;16.10;;
39264;SDS011;42646;51.910;7.724;2024-03-07T06:04:42;27.70;;;16.45;;
39264;SDS011;42646;51.910;7.724;2024-03-07T06:07:10;26.30;;;16.10;;
39264;SDS011;42646;51.910;7.724;2024-03-07T06:09:37;28.75;;;15.90;;
39264;SDS011;42646;51.910;7.724;2024-03-07T06:12:05;26.50;;;15.77;;
39264;SDS011;42646;51.910;7.724;2024-03-07T06:14:49;26.25;;;15.93;;
39264;SDS011;42646;51.910;7.724;2024-03-07T06:17:17;26.40;;;16.75;;
39264;SDS011;42646;51.910;7.724;2024-03-07T06:19:47;28.70;;;16.40;;
39264;SDS011;42646;51.910;7.724;2024-03-07T06:22:15;28.98;;;16.42;;
39264;SDS011;42646;51.910;7.724;2024-03-07T06:24:43;25.67;;;16.05;;
39264;SDS011;42646;51.910;7.724;2024-03-07T06:27:11;31.98;;;18.55;;
39264;SDS011;42646;51.910;7.724;2024-03-07T06:32:11;26.63;;;16.15;;
39264;SDS011;42646;51.910;7.724;2024-03-07T06:34:39;28.83;;;17.08;;
39264;SDS011;42646;51.910;7.724;2024-03-07T06:37:07;27.13;;;17.80;;
39264;SDS011;42646;51.910;7.724;2024-03-07T06:39:34;26.25;;;16.58;;
39264;SDS011;42646;51.910;7.724;2024-03-07T06:42:02;29.38;;;17.58;;
39264;SDS011;42646;51.910;7.724;2024-03-07T06:44:32;30.10;;;17.90;;
39264;SDS011;42646;51.910;7.724;2024-03-07T06:46:59;29.15;;;17.45;;
39264;SDS011;42646;51.910;7.724;2024-03-07T06:49:28;27.30;;;16.52;;
39264;SDS011;42646;51.910;7.724;2024-03-07T06:51:56;25.98;;;17.52;;
39264;SDS011;42646;51.910;7.724;2024-03-07T06:54:24;29.88;;;18.52;;
39264;SDS011;42646;51.910;7.724;2024-03-07T06:56:52;30.95;;;18.55;;
39264;SDS011;42646;51.910;7.724;2024-03-07T06:59:19;28.67;;;16.95;;
39264;SDS011;42646;51.910;7.724;2024-03-07T07:01:48;28.30;;;17.42;;
39264;SDS011;42646;51.910;7.724;2024-03-07T07:04:17;30.25;;;18.40;;
39264;SDS011;42646;51.910;7.724;2024-03-07T07:06:47;30.90;;;17.63;;
39264;SDS011;42646;51.910;7.724;2024-03-07T07:09:14;30.27;;;18.40;;
39264;SDS011;42646;51.910;7.724;2024-03-07T07:11:45;31.05;;;18.92;;
39264;SDS011;42646;51.910;7.724;2024-03-07T07:14:13;29.88;;;18.70;;
39264;SDS011;42646;51.910;7.724;2024-03-07T07:16:41;32.63;;;19.10;;
39264;SDS011;42646;51.910;7.724;2024-03-07T07:19:11;31.95;;;18.75;;
39264;SDS011;42646;51.910;7.724;2024-03-07T07:21:39;30.33;;;18.50;;
39264;SDS011;42646;51.910;7.724;2024-03-07T07:24:09;29.98;;;17.98;;
39264;SDS011;42646;51.910;7.724;2024-03-07T07:26:37;29.63;;;18.35;;
39264;SDS011;42646;51.910;7.724;2024-03-07T07:29:05;28.55;;;18.35;;
39264;SDS011;42646;51.910;7.724;2024-03-07T07:31:32;30.75;;;19.30;;
39264;SDS011;42646;51.910;7.724;2024-03-07T07:34:00;30.83;;;18.35;;
39264;SDS011;42646;51.910;7.724;2024-03-07T07:36:30;29.70;;;18.30;;
39264;SDS011;42646;51.910;7.724;2024-03-07T07:38:58;28.85;;;18.70;;
39264;SDS011;42646;51.910;7.724;2024-03-07T07:41:27;29.08;;;18.25;;
39264;SDS011;42646;51.910;7.724;2024-03-07T07:43:56;27.70;;;18.48;;
39264;SDS011;42646;51.910;7.724;2024-03-07T07:46:23;29.35;;;17.67;;
39264;SDS011;42646;51.910;7.724;2024-03-07T07:48:51;29.75;;;17.92;;
39264;SDS011;42646;51.910;7.724;2024-03-07T07:51:19;31.15;;;18.13;;
39264;SDS011;42646;51.910;7.724;2024-03-07T07:53:47;30.17;;;18.13;;
39264;SDS011;42646;51.910;7.724;2024-03-07T07:56:15;30.13;;;18.20;;
39264;SDS011;42646;51.910;7.724;2024-03-07T07:58:44;26.95;;;17.25;;
39264;SDS011;42646;51.910;7.724;2024-03-07T08:01:12;28.02;;;17.42;;
39264;SDS011;42646;51.910;7.724;2024-03-07T08:03:42;29.83;;;18.25;;
39264;SDS011;42646;51.910;7.724;2024-03-07T08:06:11;30.65;;;18.45;;
39264;SDS011;42646;51.910;7.724;2024-03-07T08:08:39;27.17;;;16.65;;
39264;SDS011;42646;51.910;7.724;2024-03-07T08:11:06;29.02;;;17.80;;
39264;SDS011;42646;51.910;7.724;2024-03-07T08:13:35;29.90;;;17.48;;
39264;SDS011;42646;51.910;7.724;2024-03-07T08:16:04;28.63;;;17.40;;
39264;SDS011;42646;51.910;7.724;2024-03-07T08:18:32;28.50;;;16.70;;
39264;SDS011;42646;51.910;7.724;2024-03-07T08:21:00;26.92;;;16.98;;
39264;SDS011;42646;51.910;7.724;2024-03-07T08:23:28;24.33;;;15.82;;
39264;SDS011;42646;51.910;7.724;2024-03-07T08:25:57;28.70;;;17.13;;
39264;SDS011;42646;51.910;7.724;2024-03-07T08:28:25;29.38;;;17.35;;
39264;SDS011;42646;51.910;7.724;2024-03-07T08:30:53;28.95;;;16.95;;
39264;SDS011;42646;51.910;7.724;2024-03-07T08:33:22;26.27;;;16.48;;
39264;SDS011;42646;51.910;7.724;2024-03-07T08:35:50;24.20;;;15.82;;
39264;SDS011;42646;51.910;7.724;2024-03-07T08:38:19;25.33;;;16.83;;
39264;SDS011;42646;51.910;7.724;2024-03-07T08:40:47;27.20;;;17.13;;
39264;SDS011;42646;51.910;7.724;2024-03-07T08:43:15;28.40;;;16.33;;
39264;SDS011;42646;51.910;7.724;2024-03-07T08:45:42;26.27;;;16.52;;
39264;SDS011;42646;51.910;7.724;2024-03-07T08:48:10;26.17;;;16.25;;
39264;SDS011;42646;51.910;7.724;2024-03-07T08:50:40;24.30;;;16.15;;
39264;SDS011;42646;51.910;7.724;2024-03-07T08:53:08;26.52;;;15.65;;
39264;SDS011;42646;51.910;7.724;2024-03-07T08:55:36;26.27;;;15.70;;
39264;SDS011;42646;51.910;7.724;2024-03-07T08:58:04;26.25;;;15.82;;
39264;SDS011;42646;51.910;7.724;2024-03-07T09:00:34;24.27;;;15.48;;
39264;SDS011;42646;51.910;7.724;2024-03-07T09:03:05;25.48;;;15.82;;
39264;SDS011;42646;51.910;7.724;2024-03-07T09:08:06;27.35;;;16.38;;
39264;SDS011;42646;51.910;7.724;2024-03-07T09:10:34;26.60;;;15.90;;
39264;SDS011;42646;51.910;7.724;2024-03-07T09:13:03;27.02;;;15.85;;
39264;SDS011;42646;51.910;7.724;2024-03-07T09:15:32;27.45;;;16.42;;
39264;SDS011;42646;51.910;7.724;2024-03-07T09:18:00;25.52;;;15.73;;
39264;SDS011;42646;51.910;7.724;2024-03-07T09:20:30;25.13;;;15.27;;
39264;SDS011;42646;51.910;7.724;2024-03-07T09:22:58;24.90;;;14.80;;
39264;SDS011;42646;51.910;7.724;2024-03-07T09:25:27;24.48;;;15.65;;
39264;SDS011;42646;51.910;7.724;2024-03-07T09:27:59;23.73;;;15.35;;
39264;SDS011;42646;51.910;7.724;2024-03-07T09:30:27;23.35;;;14.95;;
39264;SDS011;42646;51.910;7.724;2024-03-07T09:32:56;23.90;;;15.13;;
39264;SDS011;42646;51.910;7.724;2024-03-07T09:35:25;23.02;;;14.10;;
39264;SDS011;42646;51.910;7.724;2024-03-07T09:37:53;22.58;;;14.10;;
39264;SDS011;42646;51.910;7.724;2024-03-07T09:40:21;23.35;;;14.35;;
39264;SDS011;42646;51.910;7.724;2024-03-07T09:42:54;24.92;;;14.18;;
39264;SDS011;42646;51.910;7.724;2024-03-07T09:45:28;22.73;;;14.25;;
39264;SDS011;42646;51.910;7.724;2024-03-07T09:47:56;22.52;;;15.02;;
39264;SDS011;42646;51.910;7.724;2024-03-07T09:50:25;24.33;;;15.13;;
39264;SDS011;42646;51.910;7.724;2024-03-07T09:52:56;24.63;;;16.57;;
39264;SDS011;42646;51.910;7.724;2024-03-07T09:55:26;24.67;;;15.82;;
39264;SDS011;42646;51.910;7.724;2024-03-07T09:57:55;22.85;;;14.95;;
39264;SDS011;42646;51.910;7.724;2024-03-07T10:00:26;23.73;;;15.65;;
39264;SDS011;42646;51.910;7.724;2024-03-07T10:02:57;26.65;;;16.38;;
39264;SDS011;42646;51.910;7.724;2024-03-07T10:05:26;24.08;;;15.07;;
39264;SDS011;42646;51.910;7.724;2024-03-07T10:07:56;23.75;;;14.98;;
39264;SDS011;42646;51.910;7.724;2024-03-07T10:10:23;23.63;;;15.18;;
39264;SDS011;42646;51.910;7.724;2024-03-07T10:12:52;24.45;;;15.52;;
39264;SDS011;42646;51.910;7.724;2024-03-07T10:15:22;21.73;;;14.38;;
39264;SDS011;42646;51.910;7.724;2024-03-07T10:17:55;22.25;;;14.15;;
39264;SDS011;42646;51.910;7.724;2024-03-07T10:20:23;22.40;;;15.45;;
39264;SDS011;42646;51.910;7.724;2024-03-07T10:22:51;24.55;;;15.18;;
39264;SDS011;42646;51.910;7.724;2024-03-07T10:25:20;24.35;;;15.45;;
39264;SDS011;42646;51.910;7.724;2024-03-07T10:27:50;24.50;;;15.88;;
39264;SDS011;42646;51.910;7.724;2024-03-07T10:30:18;23.52;;;15.27;;
39264;SDS011;42646;51.910;7.724;2024-03-07T10:32:50;23.95;;;15.50;;
39264;SDS011;42646;51.910;7.724;2024-03-07T10:35:21;23.85;;;14.80;;
39264;SDS011;42646;51.910;7.724;2024-03-07T10:37:50;24.40;;;14.95;;
39264;SDS011;42646;51.910;7.724;2024-03-07T10:40:20;23.35;;;16.00;;
39264;SDS011;42646;51.910;7.724;2024-03-07T10:42:48;24.55;;;14.90;;
39264;SDS011;42646;51.910;7.724;2024-03-07T10:45:19;26.50;;;15.67;;
39264;SDS011;42646;51.910;7.724;2024-03-07T10:47:52;23.60;;;15.32;;
39264;SDS011;42646;51.910;7.724;2024-03-07T10:50:25;21.25;;;14.18;;
39264;SDS011;42646;51.910;7.724;2024-03-07T10:53:06;23.05;;;14.57;;
39264;SDS011;42646;51.910;7.724;2024-03-07T10:55:38;22.05;;;14.68;;
39264;SDS011;42646;51.910;7.724;2024-03-07T10:58:14;24.67;;;15.00;;
39264;SDS011;42646;51.910;7.724;2024-03-07T11:00:52;22.05;;;14.48;;
39264;SDS011;42646;51.910;7.724;2024-03-07T11:03:26;23.73;;;15.35;;
39264;SDS011;42646;51.910;7.724;2024-03-07T11:05:54;22.77;;;14.85;;
39264;SDS011;42646;51.910;7.724;2024-03-07T11:08:23;23.17;;;15.00;;
39264;SDS011;42646;51.910;7.724;2024-03-07T11:10:53;22.77;;;14.48;;
39264;SDS011;42646;51.910;7.724;2024-03-07T11:13:21;21.10;;;14.10;;
39264;SDS011;42646;51.910;7.724;2024-03-07T11:15:49;21.42;;;13.82;;
39264;SDS011;42646;51.910;7.724;2024-03-07T11:18:18;20.58;;;14.27;;
39264;SDS011;42646;51.910;7.724;2024-03-07T11:20:48;23.02;;;14.48;;
39264;SDS011;42646;51.910;7.724;2024-03-07T11:23:25;27.30;;;15.18;;
39264;SDS011;42646;51.910;7.724;2024-03-07T11:25:55;24.08;;;14.45;;
39264;SDS011;42646;51.910;7.724;2024-03-07T11:28:30;25.85;;;15.52;;
39264;SDS011;42646;51.910;7.724;2024-03-07T11:31:08;23.50;;;15.13;;
39264;SDS011;42646;51.910;7.724;2024-03-07T11:33:40;23.70;;;14.77;;
39264;SDS011;42646;51.910;7.724;2024-03-07T11:36:11;24.33;;;14.40;;
39264;SDS011;42646;51.910;7.724;2024-03-07T11:38:44;24.20;;;15.05;;
39264;SDS011;42646;51.910;7.724;2024-03-07T11:41:12;23.88;;;14.20;;
39264;SDS011;42646;51.910;7.724;2024-03-07T11:43:41;21.77;;;14.00;;
39264;SDS011;42646;51.910;7.724;2024-03-07T11:46:09;23.95;;;15.27;;
39264;SDS011;42646;51.910;7.724;2024-03-07T11:48:42;23.17;;;14.45;;
39264;SDS011;42646;51.910;7.724;2024-03-07T11:51:13;23.85;;;14.55;;
39264;SDS011;42646;51.910;7.724;2024-03-07T11:53:41;23.23;;;13.50;;
39264;SDS011;42646;51.910;7.724;2024-03-07T11:56:14;22.63;;;14.48;;
39264;SDS011;42646;51.910;7.724;2024-03-07T11:58:44;24.33;;;14.55;;
39264;SDS011;42646;51.910;7.724;2024-03-07T12:01:18;23.20;;;14.05;;
39264;SDS011;42646;51.910;7.724;2024-03-07T12:03:51;26.05;;;15.50;;
39264;SDS011;42646;51.910;7.724;2024-03-07T12:06:24;25.90;;;14.75;;
39264;SDS011;42646;51.910;7.724;2024-03-07T12:08:51;27.52;;;15.45;;
39264;SDS011;42646;51.910;7.724;2024-03-07T12:11:19;25.25;;;14.25;;
39264;SDS011;42646;51.910;7.724;2024-03-07T12:13:47;24.08;;;14.45;;
39264;SDS011;42646;51.910;7.724;2024-03-07T12:16:17;23.05;;;14.27;;
39264;SDS011;42646;51.910;7.724;2024-03-07T12:18:45;25.65;;;14.57;;
39264;SDS011;42646;51.910;7.724;2024-03-07T12:21:14;23.50;;;14.07;;
39264;SDS011;42646;51.910;7.724;2024-03-07T12:23:47;26.40;;;14.95;;
39264;SDS011;42646;51.910;7.724;2024-03-07T12:26:19;26.88;;;15.85;;
39264;SDS011;42646;51.910;7.724;2024-03-07T12:28:51;25.88;;;14.27;;
39264;SDS011;42646;51.910;7.724;2024-03-07T12:31:21;20.63;;;13.13;;
39264;SDS011;42646;51.910;7.724;2024-03-07T12:33:50;26.60;;;15.77;;
39264;SDS011;42646;51.910;7.724;2024-03-07T12:36:19;25.35;;;14.88;;
39264;SDS011;42646;51.910;7.724;2024-03-07T12:38:53;23.92;;;14.52;;
39264;SDS011;42646;51.910;7.724;2024-03-07T12:41:22;22.95;;;13.50;;
39264;SDS011;42646;51.910;7.724;2024-03-07T12:43:50;25.02;;;13.68;;
39264;SDS011;42646;51.910;7.724;2024-03-07T12:46:18;22.50;;;13.13;;
39264;SDS011;42646;51.910;7.724;2024-03-07T12:48:46;24.23;;;14.07;;
39264;SDS011;42646;51.910;7.724;2024-03-07T12:51:15;25.63;;;13.90;;
39264;SDS011;42646;51.910;7.724;2024-03-07T12:53:46;25.58;;;14.88;;
39264;SDS011;42646;51.910;7.724;2024-03-07T12:56:16;26.40;;;14.77;;
39264;SDS011;42646;51.910;7.724;2024-03-07T12:58:46;28.17;;;16.05;;
39264;SDS011;42646;51.910;7.724;2024-03-07T13:01:15;25.83;;;15.07;;
39264;SDS011;42646;51.910;7.724;2024-03-07T13:03:45;28.45;;;15.13;;
39264;SDS011;42646;51.910;7.724;2024-03-07T13:06:14;29.40;;;15.40;;
39264;SDS011;42646;51.910;7.724;2024-03-07T13:08:45;25.98;;;15.05;;
39264;SDS011;42646;51.910;7.724;2024-03-07T13:11:13;27.67;;;15.02;;
39264;SDS011;42646;51.910;7.724;2024-03-07T13:13:42;28.63;;;15.20;;
39264;SDS011;42646;51.910;7.724;2024-03-07T13:16:09;29.83;;;15.10;;
39264;SDS011;42646;51.910;7.724;2024-03-07T13:18:37;29.98;;;15.63;;
39264;SDS011;42646;51.910;7.724;2024-03-07T13:21:05;28.88;;;15.43;;
39264;SDS011;42646;51.910;7.724;2024-03-07T13:23:34;27.38;;;14.68;;
39264;SDS011;42646;51.910;7.724;2024-03-07T13:26:02;27.48;;;15.30;;
39264;SDS011;42646;51.910;7.724;2024-03-07T13:28:35;26.88;;;14.88;;
39264;SDS011;42646;51.910;7.724;2024-03-07T13:31:04;24.05;;;13.57;;
39264;SDS011;42646;51.910;7.724;2024-03-07T13:33:32;25.88;;;14.25;;
39264;SDS011;42646;51.910;7.724;2024-03-07T13:36:01;24.83;;;14.05;;
39264;SDS011;42646;51.910;7.724;2024-03-07T13:38:30;27.17;;;14.10;;
39264;SDS011;42646;51.910;7.724;2024-03-07T13:40:58;24.35;;;13.48;;
39264;SDS011;42646;51.910;7.724;2024-03-07T13:43:30;26.30;;;13.95;;
39264;SDS011;42646;51.910;7.724;2024-03-07T13:46:00;26.65;;;14.05;;
39264;SDS011;42646;51.910;7.724;2024-03-07T13:48:29;25.15;;;13.20;;
39264;SDS011;42646;51.910;7.724;2024-03-07T13:50:59;25.83;;;13.80;;
39264;SDS011;42646;51.910;7.724;2024-03-07T13:53:27;24.65;;;12.93;;
39264;SDS011;42646;51.910;7.724;2024-03-07T13:56:22;25.80;;;13.77;;
39264;SDS011;42646;51.910;7.724;2024-03-07T13:59:13;27.97;;;14.73;;
39264;SDS011;42646;51.910;7.724;2024-03-07T14:01:54;25.90;;;13.63;;
39264;SDS011;42646;51.910;7.724;2024-03-07T14:04:48;25.48;;;14.18;;
39264;SDS011;42646;51.910;7.724;2024-03-07T14:07:44;24.80;;;13.98;;
39264;SDS011;42646;51.910;7.724;2024-03-07T14:13:34;29.42;;;13.45;;
39264;SDS011;42646;51.910;7.724;2024-03-07T14:16:18;29.55;;;14.82;;
39264;SDS011;42646;51.910;7.724;2024-03-07T14:22:16;24.10;;;13.20;;
39264;SDS011;42646;51.910;7.724;2024-03-07T14:25:03;26.77;;;13.88;;
39264;SDS011;42646;51.910;7.724;2024-03-07T14:27:57;24.92;;;14.00;;
39264;SDS011;42646;51.910;7.724;2024-03-07T14:30:40;23.77;;;12.88;;
39264;SDS011;42646;51.910;7.724;2024-03-07T14:33:13;24.58;;;12.93;;
39264;SDS011;42646;51.910;7.724;2024-03-07T14:35:59;24.02;;;13.18;;
39264;SDS011;42646;51.910;7.724;2024-03-07T14:38:40;24.20;;;12.77;;
39264;SDS011;42646;51.910;7.724;2024-03-07T14:41:15;25.27;;;13.63;;
39264;SDS011;42646;51.910;7.724;2024-03-07T14:43:44;26.63;;;14.48;;
39264;SDS011;42646;51.910;7.724;2024-03-07T14:46:13;27.08;;;13.93;;
39264;SDS011;42646;51.910;7.724;2024-03-07T14:48:43;28.63;;;14.52;;
39264;SDS011;42646;51.910;7.724;2024-03-07T14:51:11;24.42;;;13.65;;